Huvudsida
METAR-TAF:

METAR-TAF

Flygplatser :

Kajana, Finland

Kajana flygplats

latitud: 64-17N, longitud: 027-41E, höjd: 143 m

Aktuellt väderrapport

Denna rapport gjordes för 28 minuter sedan, klockan 10:20 UTC
Vind 12 kt från ost, varierande mellan ost/nordost och sydost
Temperatur -9°C
Fuktighet 79%
Tryck 1006 hPa
Sikt 10 km eller mer
Få moln på en höjd av 2400 ft
lätta snöbyar

METAR: EFKI 171020Z AUTO 10012KT 070V140 9999 -SHSN FEW024 M09/M12 Q1006

Tid: 12:48 (10:48 UTC)

Väderprognos

Denna rapport gjordes för 2 timmar och 12 minuter sedan, klockan 08:36 UTC
Prognos gäller från 17 kl. 09 UTC till 17 kl. 18 UTC
Vind 11 kt från ost/sydost
Sikt: 8000 m
Brutna moln på en höjd av 1500 ft
lätt snö
Temporärt
från 17 kl. 09 UTC till 17 kl. 18 UTC
Sikt: 2000 m
Brutna moln på en höjd av 1200 ft

TAF: EFKI 170836Z 1709/1718 11011KT 8000 -SN BKN015 TEMPO 1709/1718 2000 BKN012

Aktuella väderrapporter och prognoser från 4000 flygplatser (METAR- och TAF-rapporter).

De tillgängliga stationerna syns som gula och röda prickar på kartan.

För musen över prickarna för att se namnen på stationerna.

Klicka sedan för att få väderrapporter och prognoser.

För att ändra kartan: Klicka på de gröna knapparna med ett svart kors på för att zooma in; den gröna knappen med ett streck på för att zooma ut; eller på de gröna pilarna för angränsande kartor.


METAR-TAF: